Time;durP1;ratioP1;P1;durP2;ratioP2;P2;SDS_P1;SDS_P2;PMS_P1;PMS_P2;Temp;Humidity;BMP_temperature;BMP_pressure;BME280_temperature;BME280_humidity;BME280_pressure;Samples;Min_cycle;Max_cycle;Signal;HPM_P1;HPM_P2
2023/05/16 00:01:00;;;;;;;1.70;0.88;;;;;;;15.08;53.33;99815.25;5053396;28;20152;-80
2023/05/16 00:03:26;;;;;;;2.58;0.80;;;;;;;15.03;53.54;99804.97;5052564;28;20049;-79
2023/05/16 00:05:53;;;;;;;1.77;1.05;;;;;;;14.98;53.42;99802.69;5053299;28;20060;-80
2023/05/16 00:08:19;;;;;;;1.30;1.20;;;;;;;14.94;53.62;99809.19;5051696;28;20052;-79
2023/05/16 00:10:46;;;;;;;1.95;0.90;;;;;;;14.89;53.80;99814.00;5053518;28;20144;-80
2023/05/16 00:13:12;;;;;;;1.55;1.08;;;;;;;14.85;53.83;99815.16;5053417;28;20048;-79
2023/05/16 00:15:39;;;;;;;1.30;1.20;;;;;;;14.79;53.99;99820.91;5053043;28;20056;-79
2023/05/16 00:18:05;;;;;;;1.00;0.90;;;;;;;14.75;54.15;99820.28;5053191;28;20155;-79
2023/05/16 00:20:33;;;;;;;1.63;1.25;;;;;;;14.71;54.30;99819.66;5053607;28;20088;-81
2023/05/16 00:23:00;;;;;;;3.33;1.33;;;;;;;14.68;54.37;99835.78;5053191;28;20057;-80
2023/05/16 00:25:27;;;;;;;2.78;1.27;;;;;;;14.64;54.20;99833.44;5052871;28;20060;-80
2023/05/16 00:27:54;;;;;;;3.47;1.27;;;;;;;14.59;54.08;99836.44;5051692;28;20092;-79
2023/05/16 00:30:21;;;;;;;5.05;1.45;;;;;;;14.52;53.81;99829.91;5053084;28;20107;-79
2023/05/16 00:32:48;;;;;;;3.47;1.50;;;;;;;14.45;54.05;99834.78;5053260;28;20497;-79
2023/05/16 00:35:15;;;;;;;4.40;1.08;;;;;;;14.39;54.23;99836.06;5052527;28;20502;-80
2023/05/16 00:37:41;;;;;;;3.25;1.48;;;;;;;14.32;54.26;99838.31;5052471;28;20429;-80
2023/05/16 00:43:31;;;;;;;7.63;1.63;;;;;;;14.25;54.18;99838.88;5082382;23;20052;-77
2023/05/16 00:45:59;;;;;;;6.53;2.05;;;;;;;14.21;54.44;99832.97;5052590;28;20149;-76
2023/05/16 00:48:26;;;;;;;5.53;1.48;;;;;;;14.18;54.53;99841.97;5052409;28;20524;-79
2023/05/16 00:50:52;;;;;;;9.43;1.70;;;;;;;14.17;54.74;99845.56;5052843;28;20081;-79
2023/05/16 00:53:20;;;;;;;6.65;1.63;;;;;;;14.14;54.60;99837.00;5052733;28;20059;-78
2023/05/16 00:55:47;;;;;;;4.95;1.67;;;;;;;14.11;54.70;99846.00;5050946;28;20426;-78
2023/05/16 00:58:14;;;;;;;8.30;2.03;;;;;;;14.08;55.01;99840.91;5050857;28;20750;-77
2023/05/16 01:00:41;;;;;;;7.53;1.52;;;;;;;14.07;55.04;99845.38;5052439;28;20084;-78
2023/05/16 01:03:08;;;;;;;6.72;1.80;;;;;;;14.07;55.05;99847.16;5052406;28;20091;-78
2023/05/16 01:05:35;;;;;;;4.82;1.75;;;;;;;14.08;54.96;99846.19;5050439;28;20053;-77
2023/05/16 01:08:01;;;;;;;9.80;1.70;;;;;;;14.10;55.11;99848.75;5051903;28;20103;-77
2023/05/16 01:10:39;;;;;;;9.90;2.00;;;;;;;14.06;55.99;99842.84;5052204;28;20060;-77
2023/05/16 01:13:12;;;;;;;7.82;2.13;;;;;;;14.06;55.86;99837.53;5052479;28;20057;-77
2023/05/16 01:15:44;;;;;;;;;;;;;;;14.07;54.85;99847.16;5052374;28;20140;-77
2023/05/16 01:18:24;;;;;;;7.72;1.60;;;;;;;14.09;55.58;99850.53;5051893;28;19925;-77
2023/05/16 01:21:02;;;;;;;7.82;1.75;;;;;;;14.07;55.64;99855.97;5052050;28;20565;-77
2023/05/16 01:23:42;;;;;;;9.63;2.17;;;;;;;14.06;55.68;99861.38;5052361;28;20118;-77
2023/05/16 01:26:17;;;;;;;6.47;1.80;;;;;;;14.03;55.83;99854.47;5051833;28;20056;-78
2023/05/16 01:28:45;;;;;;;5.68;1.90;;;;;;;14.04;55.16;99857.97;5050276;28;20064;-78
2023/05/16 01:31:12;;;;;;;4.65;1.83;;;;;;;14.04;54.98;99863.25;5051988;28;20048;-77
2023/05/16 01:33:39;;;;;;;4.35;1.83;;;;;;;14.03;55.25;99859.78;5051945;28;20671;-78
2023/05/16 01:36:10;;;;;;;5.35;1.70;;;;;;;14.01;55.68;99858.16;5050365;28;20067;-78
2023/05/16 01:38:43;;;;;;;8.60;1.80;;;;;;;14.00;55.68;99862.63;5051548;28;20501;-77
2023/05/16 01:41:16;;;;;;;8.05;1.98;;;;;;;14.00;55.07;99867.06;5051802;28;20056;-78
2023/05/16 01:43:45;;;;;;;8.60;2.17;;;;;;;13.97;55.24;99862.00;5050512;28;20497;-77
2023/05/16 01:46:15;;;;;;;8.40;2.60;;;;;;;13.96;55.34;99865.59;5050222;28;20053;-77
2023/05/16 01:49:00;;;;;;;6.07;2.25;;;;;;;13.89;55.92;99873.97;5051340;28;20056;-77
2023/05/16 01:51:32;;;;;;;12.23;1.98;;;;;;;13.90;55.29;99877.44;5051395;28;20497;-77
2023/05/16 01:54:04;;;;;;;6.18;1.90;;;;;;;13.88;55.18;99880.22;5051543;28;20064;-77
2023/05/16 01:56:32;;;;;;;7.03;2.25;;;;;;;13.85;54.95;99879.56;5051308;28;20088;-77
2023/05/16 01:59:01;;;;;;;11.27;2.05;;;;;;;13.83;55.16;99870.91;5051527;28;20053;-78
2023/05/16 02:01:29;;;;;;;8.10;2.28;;;;;;;13.80;55.59;99887.84;5051263;28;20068;-77
2023/05/16 02:03:57;;;;;;;11.52;2.42;;;;;;;13.79;55.48;99888.75;5051568;28;20057;-77
2023/05/16 02:06:24;;;;;;;10.02;2.25;;;;;;;13.78;55.40;99889.72;5049574;28;20500;-77
2023/05/16 02:08:51;;;;;;;7.72;2.22;;;;;;;13.78;55.37;99887.06;5050706;28;20052;-78
2023/05/16 02:11:17;;;;;;;7.88;2.40;;;;;;;13.75;55.37;99879.38;5051308;28;20496;-76
2023/05/16 02:13:44;;;;;;;9.60;2.00;;;;;;;13.72;55.22;99885.69;5051042;28;20089;-77
2023/05/16 02:16:11;;;;;;;8.70;2.22;;;;;;;13.69;55.27;99885.91;5050681;28;20147;-78
2023/05/16 02:18:37;;;;;;;9.93;2.28;;;;;;;13.65;55.32;99895.84;5050618;28;20068;-77
2023/05/16 02:21:04;;;;;;;11.82;2.33;;;;;;;13.61;55.43;99894.34;5049724;28;20057;-77
2023/05/16 02:23:31;;;;;;;7.95;2.50;;;;;;;13.59;55.05;99892.75;5050767;28;20164;-77
2023/05/16 02:25:58;;;;;;;10.63;2.63;;;;;;;13.56;55.11;99883.25;5049251;28;20065;-76
2023/05/16 02:28:24;;;;;;;13.88;2.72;;;;;;;13.51;54.87;99882.72;5050377;28;20143;-77
2023/05/16 02:30:58;;;;;;;10.82;2.42;;;;;;;13.43;55.87;99885.84;5050899;28;20144;-77
2023/05/16 02:33:26;;;;;;;9.25;2.38;;;;;;;13.39;55.04;99885.19;5049588;28;20151;-77
2023/05/16 02:35:53;;;;;;;9.82;1.95;;;;;;;13.36;55.00;99893.34;5050216;28;20100;-78
2023/05/16 02:38:20;;;;;;;9.50;2.30;;;;;;;13.30;55.01;99888.44;5050560;28;20096;-78
2023/05/16 02:40:48;;;;;;;8.90;1.90;;;;;;;13.26;55.02;99895.75;5050542;28;20425;-77
2023/05/16 02:43:14;;;;;;;12.50;2.25;;;;;;;13.24;55.12;99891.50;5050499;28;20527;-77
2023/05/16 02:45:41;;;;;;;19.77;2.45;;;;;;;13.21;55.41;99899.63;5050247;28;20063;-78
2023/05/16 02:48:07;;;;;;;13.23;2.53;;;;;;;13.19;55.13;99904.19;5050226;28;20053;-77
2023/05/16 02:50:34;;;;;;;12.00;2.13;;;;;;;13.15;55.10;99909.66;5050166;28;20065;-76
2023/05/16 02:53:01;;;;;;;16.70;2.60;;;;;;;13.13;55.17;99914.19;5050717;28;20521;-78
2023/05/16 02:55:28;;;;;;;13.93;2.80;;;;;;;13.09;55.04;99920.63;5048755;28;20492;-78
2023/05/16 02:57:54;;;;;;;9.77;2.17;;;;;;;13.06;54.99;99910.28;5050121;28;20106;-77
2023/05/16 03:00:21;;;;;;;19.00;2.60;;;;;;;13.02;54.96;99917.53;5050564;28;20049;-76
2023/05/16 03:02:48;;;;;;;13.55;3.10;;;;;;;12.98;54.91;99918.69;5050181;28;20064;-77
2023/05/16 03:05:15;;;;;;;10.48;2.70;;;;;;;12.95;54.95;99928.59;5049033;28;20132;-78
2023/05/16 03:07:42;;;;;;;9.10;1.95;;;;;;;12.89;54.77;99920.13;5050000;28;20065;-78
2023/05/16 03:10:09;;;;;;;13.55;2.35;;;;;;;12.84;54.55;99929.28;5050359;28;20489;-77
2023/05/16 03:12:35;;;;;;;11.57;2.00;;;;;;;12.77;54.74;99923.56;5049089;28;20045;-78
2023/05/16 03:15:03;;;;;;;15.40;2.40;;;;;;;12.71;54.53;99922.16;5048805;28;20048;-77
2023/05/16 03:17:29;;;;;;;10.13;2.20;;;;;;;12.64;54.69;99926.97;5049750;28;20481;-77
2023/05/16 03:19:56;;;;;;;13.30;2.15;;;;;;;12.57;54.59;99936.25;5050471;28;20088;-78
2023/05/16 03:22:22;;;;;;;12.23;2.22;;;;;;;12.51;54.49;99936.63;5050259;28;20085;-76
2023/05/16 03:24:49;;;;;;;17.13;2.25;;;;;;;12.43;54.54;99933.59;5049947;28;20057;-77
2023/05/16 03:27:16;;;;;;;9.55;2.03;;;;;;;12.34;54.55;99938.50;5049599;28;20056;-77
2023/05/16 03:29:42;;;;;;;11.20;2.28;;;;;;;12.28;54.69;99946.81;5050439;28;20088;-77
2023/05/16 03:32:10;;;;;;;13.00;2.40;;;;;;;12.21;54.77;99948.13;5050110;28;20080;-77
2023/05/16 03:34:37;;;;;;;13.57;2.53;;;;;;;12.15;54.89;99943.22;5050359;28;20091;-77
2023/05/16 03:37:03;;;;;;;17.75;2.75;;;;;;;12.11;55.33;99955.72;5048224;28;20048;-77
2023/05/16 03:39:30;;;;;;;15.38;2.42;;;;;;;12.05;54.93;99951.69;5050183;28;20048;-76
2023/05/16 03:41:56;;;;;;;13.73;2.42;;;;;;;12.02;55.09;99962.41;5049815;28;20061;-78
2023/05/16 03:44:23;;;;;;;10.88;2.50;;;;;;;11.96;54.95;99960.97;5050131;28;20053;-76
2023/05/16 03:46:50;;;;;;;11.30;3.00;;;;;;;11.91;55.39;99963.03;5048068;28;20053;-76
2023/05/16 03:49:17;;;;;;;11.65;2.70;;;;;;;11.86;55.06;99963.28;5050298;28;20493;-77
2023/05/16 03:51:45;;;;;;;10.25;2.70;;;;;;;11.81;55.53;99969.81;5050205;28;20088;-76
2023/05/16 03:54:14;;;;;;;16.17;2.92;;;;;;;11.76;55.21;99967.44;5048875;28;20144;-76
2023/05/16 03:56:40;;;;;;;11.98;3.20;;;;;;;11.71;55.10;99967.69;5049088;28;20524;-77
2023/05/16 03:59:07;;;;;;;9.55;2.58;;;;;;;11.68;55.24;99974.94;5048772;28;20063;-77
2023/05/16 04:01:33;;;;;;;9.65;2.50;;;;;;;11.64;55.49;99978.69;5050077;28;20096;-76
2023/05/16 04:04:00;;;;;;;13.00;2.85;;;;;;;11.60;55.33;99980.66;5052123;28;20056;-76
2023/05/16 04:06:26;;;;;;;13.50;3.28;;;;;;;11.56;55.51;99981.78;5053291;28;20084;-76
2023/05/16 04:08:53;;;;;;;14.43;2.75;;;;;;;11.53;55.49;99987.22;5052826;28;20048;-77
2023/05/16 04:11:20;;;;;;;16.95;3.28;;;;;;;11.50;55.45;99990.00;5052484;28;20061;-76
2023/05/16 04:13:47;;;;;;;12.82;2.72;;;;;;;11.46;55.52;99987.56;5053573;28;20619;-76
2023/05/16 04:16:14;;;;;;;10.98;2.63;;;;;;;11.42;55.39;99993.97;5053219;28;20057;-76
2023/05/16 04:18:40;;;;;;;15.13;2.50;;;;;;;11.39;55.36;99991.50;5052907;28;20140;-76
2023/05/16 04:21:09;;;;;;;11.20;2.40;;;;;;;11.36;55.47;100001.38;5053402;28;20057;-76
2023/05/16 04:23:36;;;;;;;7.90;1.88;;;;;;;11.34;55.59;100004.09;5051964;28;20056;-77
2023/05/16 04:26:03;;;;;;;13.20;2.67;;;;;;;11.30;55.56;100003.41;5052730;28;20092;-77
2023/05/16 04:28:30;;;;;;;8.20;1.92;;;;;;;11.28;55.75;100005.28;5052637;28;20138;-77
2023/05/16 04:30:56;;;;;;;13.80;2.72;;;;;;;11.27;55.70;100003.56;5053250;28;20106;-76
2023/05/16 04:33:23;;;;;;;10.95;2.25;;;;;;;11.28;56.02;100012.31;5053369;28;20057;-76
2023/05/16 04:35:51;;;;;;;13.85;2.22;;;;;;;11.28;55.85;100009.69;5052810;28;20140;-77
2023/05/16 04:38:18;;;;;;;8.63;2.10;;;;;;;11.29;55.89;100011.41;5052569;28;20394;-76
2023/05/16 04:40:44;;;;;;;14.20;2.20;;;;;;;11.29;55.85;100012.22;5052774;28;20114;-77
2023/05/16 04:43:11;;;;;;;11.55;2.20;;;;;;;11.30;55.75;100016.59;5052980;28;20099;-76
2023/05/16 04:45:38;;;;;;;11.13;2.00;;;;;;;11.29;56.01;100014.88;5052607;28;20458;-76
2023/05/16 04:48:05;;;;;;;9.30;1.65;;;;;;;11.29;56.10;100020.13;5052450;28;20055;-76
2023/05/16 04:50:31;;;;;;;12.90;2.50;;;;;;;11.29;56.10;100017.50;5052786;28;20061;-76
2023/05/16 04:52:58;;;;;;;10.60;2.10;;;;;;;11.30;56.05;100015.72;5052636;28;20160;-76
2023/05/16 04:55:25;;;;;;;13.15;2.10;;;;;;;11.31;56.09;100025.31;5052170;28;20103;-76
2023/05/16 04:57:52;;;;;;;11.98;2.40;;;;;;;11.32;56.26;100029.66;5050962;28;20053;-76
2023/05/16 05:00:19;;;;;;;16.15;1.85;;;;;;;11.32;56.06;100030.53;5052713;28;20143;-76
2023/05/16 05:02:46;;;;;;;9.73;2.00;;;;;;;11.33;55.97;100034.03;5051206;28;20107;-77
2023/05/16 05:05:12;;;;;;;10.10;1.50;;;;;;;11.32;55.85;100032.28;5052040;28;20056;-76
2023/05/16 05:07:39;;;;;;;19.17;2.55;;;;;;;11.30;56.02;100029.78;5052058;28;20049;-77
2023/05/16 05:10:07;;;;;;;12.43;2.40;;;;;;;11.29;55.91;100035.13;5052355;28;20528;-77
2023/05/16 05:12:34;;;;;;;10.85;2.00;;;;;;;11.28;56.25;100041.31;5052469;28;20057;-77
2023/05/16 05:15:01;;;;;;;10.20;2.03;;;;;;;11.28;56.23;100042.16;5051536;28;20172;-78
2023/05/16 05:17:28;;;;;;;11.02;1.98;;;;;;;11.30;56.23;100055.25;5050662;28;20478;-77
2023/05/16 05:19:55;;;;;;;14.10;2.17;;;;;;;11.31;56.24;100054.31;5052111;28;20052;-77
2023/05/16 05:22:21;;;;;;;9.27;1.85;;;;;;;11.32;56.29;100054.25;5051988;28;20486;-77
2023/05/16 05:24:48;;;;;;;11.15;1.95;;;;;;;11.33;56.25;100057.72;5051580;28;20049;-77
2023/05/16 05:27:14;;;;;;;9.45;1.90;;;;;;;11.36;55.99;100052.28;5051670;28;20060;-77
2023/05/16 05:29:41;;;;;;;14.15;2.00;;;;;;;11.37;56.27;100050.50;5051931;28;20051;-77
2023/05/16 05:32:07;;;;;;;10.55;1.75;;;;;;;11.39;56.35;100056.53;5051993;28;20140;-77
2023/05/16 05:34:34;;;;;;;10.73;2.20;;;;;;;11.43;56.24;100058.06;5051866;28;20053;-77
2023/05/16 05:37:01;;;;;;;11.98;2.00;;;;;;;11.46;56.52;100065.78;5051250;28;20081;-77
2023/05/16 05:39:27;;;;;;;11.82;2.65;;;;;;;11.50;56.56;100066.47;5051940;28;20148;-77
2023/05/16 05:41:54;;;;;;;14.50;2.15;;;;;;;11.53;56.48;100071.56;5051731;28;20051;-77
2023/05/16 05:44:21;;;;;;;7.55;1.48;;;;;;;11.55;56.34;100070.56;5051844;28;20053;-77
2023/05/16 05:46:47;;;;;;;12.75;1.90;;;;;;;11.57;56.17;100067.84;5050877;28;20144;-77
2023/05/16 05:49:14;;;;;;;12.18;2.15;;;;;;;11.60;56.29;100079.03;5051548;28;20419;-77
2023/05/16 05:51:41;;;;;;;7.90;2.72;;;;;;;11.63;56.19;100074.56;5051498;28;20128;-76
2023/05/16 05:54:09;;;;;;;10.43;2.13;;;;;;;11.64;56.25;100074.47;5051597;28;20079;-77
2023/05/16 05:56:35;;;;;;;8.10;1.95;;;;;;;11.68;56.35;100075.13;5049685;28;20056;-78
2023/05/16 05:59:02;;;;;;;12.43;1.92;;;;;;;11.70;56.27;100083.81;5051523;28;20093;-76
2023/05/16 06:01:29;;;;;;;11.48;2.05;;;;;;;11.72;56.35;100088.06;5051373;28;20061;-79
2023/05/16 06:03:56;;;;;;;14.27;2.22;;;;;;;11.77;56.24;100094.88;5051276;28;20053;-77
2023/05/16 06:06:23;;;;;;;10.80;2.10;;;;;;;11.79;56.22;100093.84;5050800;28;20061;-76
2023/05/16 06:08:50;;;;;;;9.57;1.92;;;;;;;11.83;56.37;100091.88;5050755;28;20491;-78
2023/05/16 06:11:17;;;;;;;9.35;1.70;;;;;;;11.85;56.58;100098.75;5050079;28;20088;-77
2023/05/16 06:13:44;;;;;;;11.18;2.20;;;;;;;11.91;56.30;100094.94;5051124;28;20056;-77
2023/05/16 06:16:10;;;;;;;12.80;2.13;;;;;;;11.96;56.23;100092.03;5051304;28;20049;-77
2023/05/16 06:18:37;;;;;;;11.38;2.00;;;;;;;12.01;56.22;100094.41;5050563;28;20139;-77
2023/05/16 06:21:05;;;;;;;13.18;2.10;;;;;;;12.04;56.14;100104.78;5051184;28;20049;-77
2023/05/16 06:23:32;;;;;;;14.98;1.95;;;;;;;12.09;56.16;100108.91;5050994;28;20099;-77
2023/05/16 06:25:59;;;;;;;19.33;2.65;;;;;;;12.11;55.77;100103.50;5049920;28;20053;-77
2023/05/16 06:28:25;;;;;;;11.38;2.13;;;;;;;12.14;55.96;100105.97;5049518;28;20551;-78
2023/05/16 06:30:52;;;;;;;12.38;2.22;;;;;;;12.17;55.76;100119.00;5050819;28;20053;-77
2023/05/16 06:33:18;;;;;;;7.75;1.80;;;;;;;12.20;55.75;100118.81;5049599;28;20061;-78
2023/05/16 06:35:46;;;;;;;11.15;2.00;;;;;;;12.24;55.97;100116.84;5050590;28;20057;-77
2023/05/16 06:38:14;;;;;;;12.02;2.13;;;;;;;12.27;56.07;100113.19;5049311;28;20053;-77
2023/05/16 06:40:40;;;;;;;10.77;1.90;;;;;;;12.31;55.89;100115.56;5050794;28;20110;-77
2023/05/16 06:43:07;;;;;;;7.65;1.83;;;;;;;12.36;55.60;100115.28;5062370;22;20068;-78
2023/05/16 06:45:34;;;;;;;10.82;2.17;;;;;;;12.42;55.51;100128.13;5050188;28;20061;-80
2023/05/16 06:48:01;;;;;;;10.70;2.05;;;;;;;12.49;55.92;100124.16;5050600;28;20055;-79
2023/05/16 06:50:27;;;;;;;10.38;2.08;;;;;;;12.58;55.89;100120.16;5050479;28;20140;-80
2023/05/16 06:52:54;;;;;;;8.50;2.38;;;;;;;12.70;56.08;100115.91;5050713;28;20152;-79
2023/05/16 06:55:20;;;;;;;10.05;1.77;;;;;;;12.81;55.98;100119.69;5050257;28;20148;-79
2023/05/16 06:57:47;;;;;;;13.52;1.85;;;;;;;12.92;55.44;100121.66;5050011;28;20600;-79
2023/05/16 07:00:14;;;;;;;9.63;2.28;;;;;;;13.00;54.97;100124.69;5050759;28;20143;-80
2023/05/16 07:02:41;;;;;;;12.65;2.47;;;;;;;13.05;54.93;100125.28;5049228;28;20114;-78
2023/05/16 07:05:10;;;;;;;13.05;1.80;;;;;;;13.10;54.81;100123.19;5050400;28;20060;-79
2023/05/16 07:07:36;;;;;;;10.85;2.42;;;;;;;13.15;54.68;100120.25;5050215;28;20111;-79
2023/05/16 07:10:03;;;;;;;9.30;2.20;;;;;;;13.20;54.54;100123.47;5050834;28;20525;-79
2023/05/16 07:12:30;;;;;;;8.15;1.92;;;;;;;13.25;54.41;100123.19;5050377;28;20061;-80
2023/05/16 07:14:56;;;;;;;12.68;2.72;;;;;;;13.30;54.24;100115.81;5050242;28;20053;-79
2023/05/16 07:17:23;;;;;;;12.13;2.33;;;;;;;13.36;54.17;100120.72;5050082;28;20056;-80
2023/05/16 07:19:50;;;;;;;8.90;1.73;;;;;;;13.43;54.20;100126.47;5050346;28;20561;-79
2023/05/16 07:22:16;;;;;;;6.75;1.65;;;;;;;13.51;53.88;100132.16;5048963;28;20056;-79
2023/05/16 07:24:43;;;;;;;7.80;1.65;;;;;;;13.56;53.27;100126.56;5049992;28;20053;-79
2023/05/16 07:27:10;;;;;;;11.85;1.92;;;;;;;13.61;52.72;100135.06;5049584;28;20048;-79
2023/05/16 07:29:37;;;;;;;9.73;1.95;;;;;;;13.62;52.76;100131.47;5050653;28;20057;-79
2023/05/16 07:32:04;;;;;;;7.93;1.50;;;;;;;13.63;52.55;100130.53;5050304;28;20118;-80
2023/05/16 07:34:30;;;;;;;7.05;1.40;;;;;;;13.64;52.31;100137.50;5049028;28;20065;-79
2023/05/16 07:36:57;;;;;;;9.30;1.70;;;;;;;13.63;51.90;100146.41;5049800;28;20512;-79
2023/05/16 07:39:25;;;;;;;11.70;1.73;;;;;;;13.63;52.00;100137.59;5054197;28;20080;-78
2023/05/16 07:41:52;;;;;;;15.10;2.20;;;;;;;13.63;52.18;100141.09;5054139;28;20107;-78
2023/05/16 07:44:20;;;;;;;6.70;1.40;;;;;;;13.67;52.62;100144.41;5054273;28;20055;-79
2023/05/16 07:46:46;;;;;;;12.55;1.48;;;;;;;13.73;53.09;100137.88;5053279;28;20052;-80
2023/05/16 07:49:13;;;;;;;9.57;2.15;;;;;;;13.84;53.21;100143.31;5052617;28;20452;-79
2023/05/16 07:51:39;;;;;;;6.90;1.50;;;;;;;13.96;52.48;100146.09;5053716;28;20089;-79
2023/05/16 07:54:06;;;;;;;10.52;1.70;;;;;;;14.05;52.83;100138.41;5053894;28;20049;-79
2023/05/16 07:56:33;;;;;;;10.88;2.03;;;;;;;14.17;52.42;100149.16;5053114;28;20060;-79
2023/05/16 07:59:00;;;;;;;10.45;1.80;;;;;;;14.29;52.34;100152.78;5054018;28;20119;-79
2023/05/16 08:01:27;;;;;;;7.72;1.50;;;;;;;14.38;52.22;100152.19;5053571;28;20533;-79
2023/05/16 08:03:53;;;;;;;4.97;1.42;;;;;;;14.46;51.41;100149.88;5053543;28;20053;-79
2023/05/16 08:06:20;;;;;;;12.15;2.13;;;;;;;14.50;50.91;100155.78;5051943;28;20103;-79
2023/05/16 08:08:47;;;;;;;7.25;1.75;;;;;;;14.52;50.63;100164.50;5053073;28;20564;-79
2023/05/16 08:11:14;;;;;;;8.27;1.52;;;;;;;14.52;50.46;100155.69;5053397;28;20053;-79
2023/05/16 08:13:40;;;;;;;6.80;2.03;;;;;;;14.50;50.71;100150.50;5053410;28;20045;-79
2023/05/16 08:16:07;;;;;;;8.15;2.00;;;;;;;14.52;50.95;100151.25;5053170;28;20060;-79
2023/05/16 08:18:34;;;;;;;8.45;1.48;;;;;;;14.56;51.40;100151.88;5051547;28;20539;-78
2023/05/16 08:21:01;;;;;;;6.72;1.65;;;;;;;14.61;51.04;100149.78;5053274;28;20065;-80
2023/05/16 08:23:27;;;;;;;8.00;1.42;;;;;;;14.68;51.05;100153.72;5053077;28;20106;-80
2023/05/16 08:25:54;;;;;;;8.98;1.65;;;;;;;14.77;51.10;100143.47;5052950;28;20088;-79
2023/05/16 08:28:20;;;;;;;5.43;1.45;;;;;;;14.83;50.24;100143.03;5052758;28;20084;-79
2023/05/16 08:30:47;;;;;;;6.15;1.65;;;;;;;14.88;49.89;100146.22;5053167;28;20068;-79
2023/05/16 08:33:14;;;;;;;8.73;1.58;;;;;;;14.91;49.62;100142.53;5053147;28;20110;-79
2023/05/16 08:35:43;;;;;;;7.72;1.58;;;;;;;14.94;49.88;100145.81;5052548;28;20053;-78
2023/05/16 08:38:09;;;;;;;7.35;1.30;;;;;;;15.00;50.13;100155.13;5067933;28;20144;-78
2023/05/16 08:40:36;;;;;;;6.03;1.50;;;;;;;15.09;50.45;100145.69;5053135;28;20053;-78
2023/05/16 08:43:04;;;;;;;6.13;1.20;;;;;;;15.22;50.05;100143.03;5051569;28;20498;-79
2023/05/16 08:45:30;;;;;;;7.45;1.85;;;;;;;15.33;49.67;100145.75;5052472;28;20076;-79
2023/05/16 08:48:00;;;;;;;6.55;1.55;;;;;;;15.40;48.54;100140.03;5052358;28;20465;-79
2023/05/16 08:50:34;;;;;;;7.63;1.50;;;;;;;15.44;48.68;100139.69;5052118;28;20103;-79
2023/05/16 08:53:06;;;;;;;7.93;1.33;;;;;;;15.45;47.98;100144.06;5052878;28;20045;-79
2023/05/16 08:55:34;;;;;;;8.73;1.58;;;;;;;15.45;48.77;100148.50;5051333;28;20075;-78
2023/05/16 08:58:02;;;;;;;7.88;1.50;;;;;;;15.45;49.01;100141.41;5052297;28;20057;-79
2023/05/16 09:00:30;;;;;;;4.70;1.45;;;;;;;15.48;49.52;100135.84;5052571;28;20107;-79
2023/05/16 09:02:57;;;;;;;3.10;1.20;;;;;;;15.56;49.48;100143.28;5052627;28;20065;-79
2023/05/16 09:05:24;;;;;;;6.85;1.30;;;;;;;15.67;49.03;100139.84;5052045;28;20052;-79
2023/05/16 09:07:51;;;;;;;6.80;1.38;;;;;;;15.80;49.17;100136.28;5051936;28;20053;-79
2023/05/16 09:10:18;;;;;;;5.38;1.70;;;;;;;15.95;49.02;100142.31;5052447;28;20095;-78
2023/05/16 09:12:45;;;;;;;3.38;1.20;;;;;;;16.05;47.75;100138.03;5052403;28;20051;-79
2023/05/16 09:15:12;;;;;;;6.55;1.42;;;;;;;16.14;47.14;100142.66;5052044;28;20068;-80
2023/05/16 09:17:42;;;;;;;6.00;0.98;;;;;;;16.20;47.26;100138.69;5050609;28;20425;-79
2023/05/16 09:20:10;;;;;;;4.57;1.17;;;;;;;16.26;47.67;100143.53;5052145;28;20143;-79
2023/05/16 09:22:37;;;;;;;6.63;1.55;;;;;;;16.32;47.38;100138.72;5052278;28;20057;-79
2023/05/16 09:25:04;;;;;;;5.90;1.40;;;;;;;16.40;47.40;100141.66;5051686;28;20057;-80
2023/05/16 09:27:34;;;;;;;3.88;1.20;;;;;;;16.52;47.97;100147.88;5051785;28;20057;-79
2023/05/16 09:30:01;;;;;;;8.45;1.13;;;;;;;16.66;47.82;100138.81;5052255;28;20052;-80
2023/05/16 09:32:27;;;;;;;5.22;1.23;;;;;;;16.81;47.53;100144.78;5052547;28;20405;-79
2023/05/16 09:34:57;;;;;;;5.18;1.13;;;;;;;16.93;46.74;100142.97;5051831;28;20139;-78
2023/05/16 09:37:24;;;;;;;6.35;1.27;;;;;;;17.00;46.41;100133.56;5051613;28;20107;-79
2023/05/16 09:39:56;;;;;;;7.45;1.63;;;;;;;17.03;45.64;100138.63;5052134;28;20442;-79
2023/05/16 09:42:24;;;;;;;7.15;1.40;;;;;;;17.03;45.39;100138.63;5051829;28;20061;-79
2023/05/16 09:44:53;;;;;;;6.13;1.05;;;;;;;17.03;45.94;100141.28;5051536;28;20061;-79
2023/05/16 09:47:21;;;;;;;5.53;1.40;;;;;;;17.05;46.50;100144.69;5051660;28;20441;-79
2023/05/16 09:49:52;;;;;;;7.38;1.15;;;;;;;17.06;45.54;100148.22;5051742;28;20053;-79
2023/05/16 09:52:18;;;;;;;2.67;0.95;;;;;;;17.12;46.11;100138.91;5051638;28;20056;-79
2023/05/16 09:54:49;;;;;;;6.38;1.27;;;;;;;17.15;45.91;100141.31;5051331;28;20506;-78
2023/05/16 09:57:22;;;;;;;3.75;1.05;;;;;;;17.16;45.68;100143.03;5051261;28;20445;-80
2023/05/16 09:59:49;;;;;;;5.10;1.55;;;;;;;17.19;45.59;100140.97;5051679;28;20068;-79
2023/05/16 10:02:16;;;;;;;4.53;1.13;;;;;;;17.20;45.92;100149.81;5051455;28;20048;-79
2023/05/16 10:04:42;;;;;;;5.10;1.45;;;;;;;17.19;46.19;100148.09;5051233;28;20064;-79
2023/05/16 10:07:09;;;;;;;4.57;1.27;;;;;;;17.20;45.89;100133.84;5050809;28;20490;-78
2023/05/16 10:09:39;;;;;;;5.95;1.35;;;;;;;17.23;45.88;100138.06;5051422;28;20136;-79
2023/05/16 10:12:07;;;;;;;4.72;1.30;;;;;;;17.28;45.89;100130.56;5051468;28;20132;-79
2023/05/16 10:14:36;;;;;;;4.50;1.20;;;;;;;17.35;45.59;100131.78;5050181;28;20064;-79
2023/05/16 10:17:05;;;;;;;5.90;1.55;;;;;;;17.45;45.61;100134.53;5050346;28;20071;-79
2023/05/16 10:19:39;;;;;;;3.78;1.08;;;;;;;17.54;44.88;100125.78;5051069;28;20057;-80
2023/05/16 10:22:06;;;;;;;2.72;0.90;;;;;;;17.67;45.57;100146.09;5050970;28;20049;-79
2023/05/16 10:24:47;;;;;;;6.07;1.20;;;;;;;17.75;43.67;100142.84;5050806;28;20140;-79
2023/05/16 10:27:14;;;;;;;4.38;1.27;;;;;;;17.87;43.79;100139.16;5050731;28;20139;-79
2023/05/16 10:29:44;;;;;;;3.90;1.10;;;;;;;17.94;43.61;100142.19;5051323;28;20449;-79
2023/05/16 10:32:23;;;;;;;5.82;1.60;;;;;;;17.94;43.22;100135.03;5050831;28;20654;-79
2023/05/16 10:34:51;;;;;;;5.07;1.00;;;;;;;17.94;42.96;100131.53;5050631;28;20049;-79
2023/05/16 10:37:18;;;;;;;4.57;1.48;;;;;;;17.93;43.64;100135.16;5049212;28;20486;-80
2023/05/16 10:39:45;;;;;;;8.27;1.23;;;;;;;17.99;43.59;100126.66;5050892;28;20127;-80
2023/05/16 10:42:17;;;;;;;4.97;1.20;;;;;;;18.13;44.92;100117.53;5049286;28;20111;-79
2023/05/16 10:44:43;;;;;;;4.63;1.15;;;;;;;18.38;44.45;100122.66;5050496;28;20048;-79
2023/05/16 10:47:23;;;;;;;6.60;1.23;;;;;;;18.72;44.69;100112.63;5049283;28;20106;-81
2023/05/16 10:49:50;;;;;;;6.47;1.33;;;;;;;19.18;44.90;100122.97;5050736;28;20110;-79
2023/05/16 10:52:17;;;;;;;2.88;0.90;;;;;;;19.70;44.91;100123.81;5050639;28;20092;-80
2023/05/16 10:54:52;;;;;;;2.38;1.05;;;;;;;20.26;42.00;100121.47;5050486;28;20053;-79
2023/05/16 10:57:22;;;;;;;2.53;0.98;;;;;;;20.89;42.32;100121.94;5049004;28;20056;-80
2023/05/16 10:59:50;;;;;;;1.75;0.90;;;;;;;21.47;41.18;100133.38;5050736;28;20079;-77
2023/05/16 11:02:27;;;;;;;3.55;1.10;;;;;;;22.03;39.89;100116.38;5050809;28;20060;-78
2023/05/16 11:04:58;;;;;;;2.70;1.27;;;;;;;22.50;37.18;100120.63;5050036;28;20057;-77
2023/05/16 11:07:31;;;;;;;2.10;1.08;;;;;;;22.74;35.20;100119.09;5050242;28;20452;-78
2023/05/16 11:10:07;;;;;;;;;;;;;;;22.80;38.25;100123.81;5050931;28;20084;-77
2023/05/16 11:12:41;;;;;;;2.53;0.80;;;;;;;22.73;35.32;100122.81;5053918;28;19920;-77
2023/05/16 11:15:22;;;;;;;6.70;1.10;;;;;;;22.51;35.88;100120.44;5056781;28;20057;-77
2023/05/16 11:17:49;;;;;;;3.75;1.00;;;;;;;22.41;36.80;100121.53;5056846;28;20464;-77
2023/05/16 11:20:29;;;;;;;4.57;1.35;;;;;;;22.21;35.71;100116.38;5056913;28;20071;-77
2023/05/16 11:23:15;;;;;;;3.13;1.20;;;;;;;22.04;36.17;100118.91;5057119;28;20052;-79
2023/05/16 11:25:44;;;;;;;2.63;1.10;;;;;;;22.00;35.89;100118.38;5056568;28;20143;-79
2023/05/16 11:28:13;;;;;;;8.18;1.40;;;;;;;21.96;36.69;100127.72;5056703;28;20057;-77
2023/05/16 11:30:45;;;;;;;6.03;1.65;;;;;;;21.95;36.56;100118.00;5057079;28;20057;-77
2023/05/16 11:33:12;;;;;;;1.83;1.00;;;;;;;22.12;37.60;100118.13;5057086;28;20052;-77